Time;durP1;ratioP1;P1;durP2;ratioP2;P2;SDS_P1;SDS_P2;PMS_P1;PMS_P2;Temp;Humidity;BMP_temperature;BMP_pressure;BME280_temperature;BME280_humidity;BME280_pressure;Samples;Min_cycle;Max_cycle;Signal;HPM_P1;HPM_P2
2023/04/19 00:00:13;;;;;;;3.75;3.28;;;;;;;15.07;59.32;102615.59;5073506;28;20039;-53
2023/04/19 00:02:40;;;;;;;4.45;3.22;;;;;;;15.06;59.37;102617.44;5076378;28;20025;-52
2023/04/19 00:05:06;;;;;;;3.50;2.92;;;;;;;15.05;59.33;102615.69;5072986;28;20033;-52
2023/04/19 00:07:32;;;;;;;3.70;3.40;;;;;;;15.06;59.31;102614.75;5066961;28;20029;-53
2023/04/19 00:09:57;;;;;;;3.63;3.30;;;;;;;15.06;59.42;102614.75;5076752;28;20112;-52
2023/04/19 00:12:23;;;;;;;3.60;3.30;;;;;;;15.05;59.68;102616.53;5066760;28;20036;-52
2023/04/19 00:14:48;;;;;;;3.50;3.20;;;;;;;15.05;59.71;102621.03;5076082;28;20028;-52
2023/04/19 00:17:13;;;;;;;3.83;3.53;;;;;;;15.05;59.42;102605.81;5069858;28;20090;-52
2023/04/19 00:19:39;;;;;;;3.15;2.90;;;;;;;15.05;59.29;102604.94;5068167;28;20035;-50
2023/04/19 00:22:04;;;;;;;3.95;3.55;;;;;;;15.05;59.74;102615.69;5050954;28;20086;-53
2023/04/19 00:24:29;;;;;;;3.92;3.53;;;;;;;15.04;59.76;102601.41;5067791;28;20033;-52
2023/04/19 00:26:56;;;;;;;4.20;3.20;;;;;;;15.04;59.84;102608.56;5050405;28;20033;-53
2023/04/19 00:29:21;;;;;;;3.65;3.30;;;;;;;15.03;59.50;102601.50;5075133;28;20047;-53
2023/04/19 00:31:47;;;;;;;3.85;3.15;;;;;;;15.03;59.50;102596.97;5068502;28;20036;-53
2023/04/19 00:34:12;;;;;;;3.35;3.03;;;;;;;15.05;59.80;102599.59;5069157;28;20040;-53
2023/04/19 00:36:37;;;;;;;5.38;3.20;;;;;;;15.05;59.44;102604.94;5067685;28;20446;-51
2023/04/19 00:39:03;;;;;;;3.83;3.35;;;;;;;15.02;59.42;102584.53;5066775;28;20033;-51
2023/04/19 00:41:28;;;;;;;3.63;3.33;;;;;;;15.04;59.83;102595.16;5070741;28;20032;-52
2023/04/19 00:43:54;;;;;;;3.85;3.55;;;;;;;15.04;59.52;102593.38;5067824;28;20512;-51
2023/04/19 00:46:19;;;;;;;3.38;3.08;;;;;;;15.04;59.77;102597.84;5067877;28;20371;-51
2023/04/19 00:48:45;;;;;;;3.95;3.28;;;;;;;15.02;59.46;102589.91;5068084;28;20035;-51
2023/04/19 00:51:11;;;;;;;3.58;3.28;;;;;;;15.02;59.88;102597.06;5067922;28;20413;-53
2023/04/19 00:53:37;;;;;;;4.18;3.78;;;;;;;15.02;59.65;102602.41;5068823;28;20123;-53
2023/04/19 00:56:04;;;;;;;5.53;3.63;;;;;;;15.01;59.75;102595.34;5067506;28;20039;-53
2023/04/19 00:58:30;;;;;;;3.53;3.20;;;;;;;15.01;59.52;102596.19;5068009;28;20504;-53
2023/04/19 01:00:56;;;;;;;3.65;3.35;;;;;;;15.01;59.91;102598.88;5067190;28;20108;-53
2023/04/19 01:03:21;;;;;;;3.90;3.30;;;;;;;15.01;59.41;102598.88;5071486;28;20119;-52
2023/04/19 01:05:47;;;;;;;3.60;3.25;;;;;;;15.02;59.79;102591.69;5074247;28;20463;-53
2023/04/19 01:08:13;;;;;;;4.75;3.67;;;;;;;15.01;59.58;102589.97;5067784;28;20044;-53
2023/04/19 01:10:38;;;;;;;4.00;3.17;;;;;;;15.01;59.45;102587.28;5074371;28;20112;-52
2023/04/19 01:13:04;;;;;;;3.83;3.38;;;;;;;15.01;59.42;102590.84;5066861;28;20029;-53
2023/04/19 01:15:30;;;;;;;4.45;3.30;;;;;;;15.00;59.47;102594.50;5067460;28;20033;-51
2023/04/19 01:17:56;;;;;;;4.53;4.07;;;;;;;15.00;59.88;102590.91;5067988;28;20020;-51
2023/04/19 01:20:21;;;;;;;4.35;3.25;;;;;;;15.00;59.79;102589.13;5067128;28;20037;-51
2023/04/19 01:22:47;;;;;;;3.78;3.30;;;;;;;15.00;59.84;102585.56;5067797;28;20037;-49
2023/04/19 01:25:12;;;;;;;4.85;3.88;;;;;;;15.00;59.41;102582.88;5067470;28;20860;-50
2023/04/19 01:27:38;;;;;;;3.75;3.22;;;;;;;15.00;59.53;102585.56;5067110;28;20029;-51
2023/04/19 01:30:04;;;;;;;3.50;3.10;;;;;;;14.99;59.77;102584.69;5068096;28;20135;-51
2023/04/19 01:32:29;;;;;;;3.92;3.15;;;;;;;15.00;59.67;102588.22;5066944;28;20025;-51
2023/04/19 01:34:54;;;;;;;3.80;3.50;;;;;;;14.99;59.78;102592.75;5067548;28;20032;-51
2023/04/19 01:37:20;;;;;;;4.40;3.17;;;;;;;15.00;59.51;102590.91;5066525;28;20500;-50
2023/04/19 01:39:45;;;;;;;3.80;3.40;;;;;;;15.00;59.70;102596.28;5067637;28;20446;-51
2023/04/19 01:42:10;;;;;;;3.83;3.40;;;;;;;14.99;59.41;102591.88;5067583;28;20036;-50
2023/04/19 01:44:36;;;;;;;4.30;3.90;;;;;;;15.00;59.94;102596.28;5066444;28;20494;-50
2023/04/19 01:47:01;;;;;;;4.88;3.10;;;;;;;15.00;59.53;102590.91;5067143;28;20068;-51
2023/04/19 01:49:26;;;;;;;3.45;3.15;;;;;;;14.99;59.61;102591.88;5066114;28;20032;-51
2023/04/19 01:51:52;;;;;;;3.58;3.28;;;;;;;14.99;59.54;102589.19;5071361;28;20108;-51
2023/04/19 01:54:17;;;;;;;4.40;4.00;;;;;;;14.98;59.79;102585.66;5068484;28;20063;-51
2023/04/19 01:56:43;;;;;;;3.50;3.20;;;;;;;14.99;59.55;102583.84;5066660;28;20119;-50
2023/04/19 01:59:08;;;;;;;3.30;3.00;;;;;;;14.98;59.69;102576.72;5074111;28;20028;-50
2023/04/19 02:01:33;;;;;;;3.83;3.53;;;;;;;14.98;59.51;102580.28;5067370;28;20470;-50
2023/04/19 02:04:00;;;;;;;3.75;3.20;;;;;;;14.98;59.54;102576.72;5066540;28;20044;-51
2023/04/19 02:06:26;;;;;;;3.50;3.20;;;;;;;14.98;59.69;102568.66;5066030;28;20428;-51
2023/04/19 02:08:51;;;;;;;3.85;3.42;;;;;;;14.98;59.83;102568.66;5066280;28;20060;-51
2023/04/19 02:11:17;;;;;;;4.03;3.40;;;;;;;14.97;59.92;102566.97;5070462;28;20031;-49
2023/04/19 02:13:42;;;;;;;3.45;3.10;;;;;;;14.96;59.78;102567.91;5051635;28;20112;-51
2023/04/19 02:16:09;;;;;;;3.60;3.30;;;;;;;14.97;59.84;102573.19;5066336;28;20427;-51
2023/04/19 02:18:37;;;;;;;3.72;3.33;;;;;;;14.97;59.95;102575.00;5075169;28;20075;-51
2023/04/19 02:21:03;;;;;;;4.53;4.13;;;;;;;14.97;59.58;102570.50;5067140;28;20029;-51
2023/04/19 02:23:29;;;;;;;4.15;3.72;;;;;;;14.97;59.97;102569.63;5074833;28;20032;-51
2023/04/19 02:25:54;;;;;;;3.60;3.30;;;;;;;14.98;59.98;102563.31;5072653;28;20377;-51
2023/04/19 02:28:20;;;;;;;3.47;3.17;;;;;;;14.96;59.94;102568.75;5069563;28;20028;-47
2023/04/19 02:30:45;;;;;;;3.85;3.42;;;;;;;14.97;59.63;102569.63;5067144;28;20036;-51
2023/04/19 02:33:11;;;;;;;4.45;3.40;;;;;;;14.96;60.11;102568.75;5065787;28;20035;-49
2023/04/19 02:35:36;;;;;;;4.15;3.75;;;;;;;14.98;59.63;102563.31;5066487;28;20039;-50
2023/04/19 02:38:03;;;;;;;3.55;3.25;;;;;;;14.96;59.74;102567.91;5064235;28;20028;-51
2023/04/19 02:40:28;;;;;;;3.65;3.30;;;;;;;14.96;59.94;102562.53;5066788;28;20038;-51
2023/04/19 02:42:54;;;;;;;3.72;3.33;;;;;;;14.96;60.01;102562.53;5065897;28;20102;-51
2023/04/19 02:45:19;;;;;;;3.80;3.03;;;;;;;14.96;60.23;102562.53;5076686;28;20033;-50
2023/04/19 02:47:45;;;;;;;4.95;3.58;;;;;;;14.96;59.83;102578.63;5070111;28;20044;-50
2023/04/19 02:50:11;;;;;;;3.28;2.97;;;;;;;14.96;59.69;102567.91;5083873;28;20128;-50
2023/04/19 02:52:36;;;;;;;3.40;3.10;;;;;;;14.95;59.71;102566.19;5071463;28;20032;-51
2023/04/19 02:55:03;;;;;;;3.60;3.30;;;;;;;14.95;59.90;102566.19;5066002;28;20103;-50
2023/04/19 02:57:29;;;;;;;3.60;3.30;;;;;;;14.95;59.92;102577.78;5064888;28;20385;-51
2023/04/19 02:59:54;;;;;;;3.80;3.50;;;;;;;14.95;59.67;102566.19;5065514;28;20036;-51
2023/04/19 03:02:19;;;;;;;3.88;2.97;;;;;;;14.95;59.95;102566.19;5066650;28;20496;-51
2023/04/19 03:04:46;;;;;;;3.30;3.00;;;;;;;14.94;59.68;102569.78;5076803;28;20032;-51
2023/04/19 03:07:11;;;;;;;3.72;3.13;;;;;;;14.94;59.80;102576.03;5069358;28;20036;-51
2023/04/19 03:09:37;;;;;;;3.75;3.13;;;;;;;14.94;60.02;102575.16;5065136;28;20085;-50
2023/04/19 03:12:03;;;;;;;3.28;2.97;;;;;;;14.94;60.01;102575.16;5065318;28;20465;-51
2023/04/19 03:14:28;;;;;;;4.20;3.33;;;;;;;14.93;59.81;102568.94;5064948;28;20040;-50
2023/04/19 03:16:53;;;;;;;3.60;3.30;;;;;;;14.94;59.73;102564.44;5065122;28;20028;-50
2023/04/19 03:19:19;;;;;;;3.42;3.13;;;;;;;14.94;59.88;102567.13;5066003;28;20074;-51
2023/04/19 03:21:45;;;;;;;4.20;3.53;;;;;;;14.93;59.78;102566.25;5046809;28;20516;-51
2023/04/19 03:24:11;;;;;;;3.70;3.30;;;;;;;14.93;59.99;102565.41;5065174;28;20029;-51
2023/04/19 03:26:36;;;;;;;3.58;3.28;;;;;;;14.93;60.00;102566.25;5065606;28;20043;-51
2023/04/19 03:29:01;;;;;;;3.60;3.30;;;;;;;14.92;60.16;102561.81;5064971;28;20044;-51
2023/04/19 03:31:27;;;;;;;3.50;3.15;;;;;;;14.94;59.87;102556.38;5066935;28;20036;-51
2023/04/19 03:33:52;;;;;;;3.50;3.20;;;;;;;14.93;60.20;102563.56;5072097;28;20033;-53
2023/04/19 03:36:18;;;;;;;3.40;2.90;;;;;;;14.93;60.14;102560.91;5065587;28;20056;-52
2023/04/19 03:38:43;;;;;;;3.70;3.10;;;;;;;14.93;60.06;102552.84;5064233;28;20044;-52
2023/04/19 03:41:25;;;;;;;3.15;2.95;;;;;;;14.94;60.05;102551.88;5065002;28;20056;-53
2023/04/19 03:43:51;;;;;;;3.22;2.92;;;;;;;14.92;60.08;102553.78;5070144;28;20474;-53
2023/04/19 03:46:16;;;;;;;3.30;3.00;;;;;;;14.92;60.13;102552.94;5070509;28;20029;-53
2023/04/19 03:48:41;;;;;;;3.20;2.90;;;;;;;14.93;59.96;102560.03;5064952;28;20044;-53
2023/04/19 03:51:07;;;;;;;3.78;3.47;;;;;;;14.93;59.75;102560.03;5047292;28;20129;-53
2023/04/19 03:53:32;;;;;;;5.45;3.28;;;;;;;14.92;60.28;102555.59;5064720;28;20033;-53
2023/04/19 03:55:57;;;;;;;3.45;2.95;;;;;;;14.93;60.10;102557.34;5065319;28;20360;-53
2023/04/19 03:58:23;;;;;;;3.33;3.03;;;;;;;14.92;60.36;102561.81;5064778;28;20108;-53
2023/04/19 04:00:48;;;;;;;3.45;3.15;;;;;;;14.92;60.13;102560.97;5064068;28;20386;-52
2023/04/19 04:03:14;;;;;;;3.35;3.00;;;;;;;14.91;60.05;102565.47;5065431;28;20123;-53
2023/04/19 04:05:39;;;;;;;3.13;2.85;;;;;;;14.93;59.92;102560.03;5066879;28;20475;-51
2023/04/19 04:08:04;;;;;;;3.17;2.92;;;;;;;14.92;59.97;102563.66;5073705;28;20166;-53
2023/04/19 04:10:30;;;;;;;3.28;3.00;;;;;;;14.91;60.25;102556.53;5064202;28;20112;-51
2023/04/19 04:12:55;;;;;;;3.83;3.53;;;;;;;14.90;60.15;102563.72;5064749;28;20037;-52
2023/04/19 04:15:20;;;;;;;3.17;2.88;;;;;;;14.91;60.22;102560.13;5072862;28;20028;-52
2023/04/19 04:17:46;;;;;;;2.72;2.53;;;;;;;14.91;59.92;102561.91;5055336;28;20507;-50
2023/04/19 04:20:12;;;;;;;3.20;2.90;;;;;;;14.91;59.88;102562.78;5065011;28;20028;-51
2023/04/19 04:22:47;;;;;;;3.30;3.00;;;;;;;14.91;60.28;102564.59;5045038;28;20042;-48
2023/04/19 04:25:15;;;;;;;3.47;3.17;;;;;;;14.91;60.36;102561.91;5068467;28;20033;-49
2023/04/19 04:27:42;;;;;;;3.42;3.13;;;;;;;14.90;60.23;102558.38;5068678;28;20040;-50
2023/04/19 04:30:09;;;;;;;3.33;3.03;;;;;;;14.89;60.22;102556.66;5068124;28;20839;-51
2023/04/19 04:32:34;;;;;;;3.35;3.05;;;;;;;14.90;59.96;102562.88;5068502;28;20064;-49
2023/04/19 04:35:01;;;;;;;3.70;3.40;;;;;;;14.89;60.20;102559.34;5067534;28;20056;-50
2023/04/19 04:37:27;;;;;;;3.75;3.45;;;;;;;14.90;60.33;102563.72;5075361;28;20437;-51
2023/04/19 04:39:52;;;;;;;3.45;3.15;;;;;;;14.90;60.35;102562.88;5066047;28;20053;-50
2023/04/19 04:42:20;;;;;;;3.35;3.15;;;;;;;14.91;59.97;102564.59;5070879;28;20028;-51
2023/04/19 04:44:46;;;;;;;3.42;3.13;;;;;;;14.90;59.90;102571.78;5083245;28;20456;-50
2023/04/19 04:47:12;;;;;;;3.13;2.83;;;;;;;14.89;60.39;102567.38;5066004;28;20025;-50
2023/04/19 04:49:38;;;;;;;3.10;2.90;;;;;;;14.90;59.89;102574.47;5067213;28;20028;-50
2023/04/19 04:52:03;;;;;;;3.35;3.05;;;;;;;14.90;59.92;102574.47;5068199;28;20112;-51
2023/04/19 04:54:29;;;;;;;3.05;2.75;;;;;;;14.90;60.18;102578.97;5067714;28;20108;-51
2023/04/19 04:56:54;;;;;;;3.17;2.88;;;;;;;14.91;60.12;102588.72;5075909;28;20036;-51
2023/04/19 04:59:20;;;;;;;3.60;3.13;;;;;;;14.90;60.39;102577.16;5066919;28;20371;-51
2023/04/19 05:01:45;;;;;;;3.20;2.88;;;;;;;14.91;59.89;102580.69;5070541;28;20124;-51
2023/04/19 05:04:11;;;;;;;3.40;3.10;;;;;;;14.90;59.94;102585.19;5074947;28;20060;-50
2023/04/19 05:06:39;;;;;;;2.88;2.67;;;;;;;14.91;60.26;102586.03;5067518;28;20056;-51
2023/04/19 05:09:05;;;;;;;3.40;3.10;;;;;;;14.89;59.89;102580.78;5073748;28;20123;-51
2023/04/19 05:11:30;;;;;;;3.70;3.33;;;;;;;14.90;60.04;102581.66;5067861;28;20104;-51
2023/04/19 05:13:56;;;;;;;2.95;2.65;;;;;;;14.90;59.90;102585.19;5070042;28;20351;-51
2023/04/19 05:16:22;;;;;;;2.90;2.70;;;;;;;14.90;59.98;102595.91;5072235;28;20115;-50
2023/04/19 05:18:47;;;;;;;3.22;2.92;;;;;;;14.90;60.12;102592.38;5068159;28;20028;-50
2023/04/19 05:21:12;;;;;;;3.42;3.13;;;;;;;14.90;60.23;102595.91;5074850;28;20028;-50
2023/04/19 05:23:38;;;;;;;2.95;2.65;;;;;;;14.90;60.31;102595.06;5075446;28;20041;-51
2023/04/19 05:26:04;;;;;;;3.78;3.28;;;;;;;14.89;60.25;102590.63;5073801;28;20028;-51
2023/04/19 05:28:29;;;;;;;3.67;3.28;;;;;;;14.90;60.22;102587.00;5047476;28;20039;-51
2023/04/19 05:30:55;;;;;;;3.20;2.95;;;;;;;14.89;60.32;102582.59;5073105;28;20040;-51
2023/04/19 05:33:20;;;;;;;3.22;2.92;;;;;;;14.88;60.26;102589.78;5069778;28;20100;-51
2023/04/19 05:35:45;;;;;;;3.50;3.20;;;;;;;14.88;59.98;102592.44;5073394;28;20032;-51
2023/04/19 05:38:11;;;;;;;3.95;3.22;;;;;;;14.86;59.99;102592.53;5054631;28;20387;-51
2023/04/19 05:40:37;;;;;;;3.72;3.10;;;;;;;14.88;60.05;102588.91;5062804;28;20111;-51
2023/04/19 05:43:03;;;;;;;3.10;2.80;;;;;;;14.86;60.26;102584.47;5066832;28;20035;-51
2023/04/19 05:45:28;;;;;;;3.65;3.20;;;;;;;14.86;60.11;102595.22;5067406;28;20432;-51
2023/04/19 05:47:53;;;;;;;4.35;3.10;;;;;;;14.88;60.06;102591.59;5067338;28;20082;-50
2023/04/19 05:50:19;;;;;;;3.20;2.90;;;;;;;14.87;60.11;102588.06;5066869;28;20060;-51
2023/04/19 05:52:45;;;;;;;3.28;2.85;;;;;;;14.86;60.32;102589.84;5066129;28;20047;-50
2023/04/19 05:55:10;;;;;;;3.08;2.88;;;;;;;14.86;60.12;102594.34;5066544;28;20054;-51
2023/04/19 05:57:36;;;;;;;3.17;2.63;;;;;;;14.86;60.35;102579.13;5071113;28;20036;-51
2023/04/19 06:00:01;;;;;;;3.40;3.10;;;;;;;14.86;60.50;102587.16;5071113;28;20028;-51
2023/04/19 06:02:27;;;;;;;3.35;3.05;;;;;;;14.86;59.91;102594.34;5070598;28;20060;-51
2023/04/19 06:04:52;;;;;;;3.50;3.20;;;;;;;14.85;60.51;102595.31;5065780;28;20406;-51
2023/04/19 06:07:17;;;;;;;3.70;3.33;;;;;;;14.86;60.12;102589.84;5066495;28;20055;-51
2023/04/19 06:09:43;;;;;;;3.10;2.80;;;;;;;14.84;60.49;102591.75;5075412;28;20024;-51
2023/04/19 06:12:08;;;;;;;2.75;2.42;;;;;;;14.86;60.50;102591.66;5072701;28;20474;-51
2023/04/19 06:14:34;;;;;;;3.45;2.88;;;;;;;14.86;59.99;102603.25;5075363;28;20123;-50
2023/04/19 06:16:59;;;;;;;3.22;2.90;;;;;;;14.86;60.43;102597.03;5081124;28;20033;-51
2023/04/19 06:19:24;;;;;;;2.75;2.55;;;;;;;14.86;60.30;102591.66;5069100;28;20040;-51
2023/04/19 06:21:50;;;;;;;3.33;3.03;;;;;;;14.85;60.49;102585.44;5048826;28;20025;-49
2023/04/19 06:24:15;;;;;;;3.58;3.15;;;;;;;14.86;60.27;102591.66;5065896;28;20111;-50
2023/04/19 06:26:41;;;;;;;3.08;2.78;;;;;;;14.85;60.20;102593.50;5066289;28;20052;-51
2023/04/19 06:29:06;;;;;;;3.30;3.00;;;;;;;14.87;60.15;102601.47;5065550;28;20060;-51
2023/04/19 06:31:32;;;;;;;2.90;2.60;;;;;;;14.85;60.16;102596.19;5066008;28;20036;-51
2023/04/19 06:33:57;;;;;;;3.05;2.75;;;;;;;14.85;59.99;102598.84;5067045;28;20025;-51
2023/04/19 06:36:23;;;;;;;2.80;2.60;;;;;;;14.87;60.05;102596.09;5074090;28;20028;-52
2023/04/19 06:38:49;;;;;;;2.97;2.78;;;;;;;14.86;60.34;102592.53;5068531;28;20067;-51
2023/04/19 06:41:14;;;;;;;3.70;2.40;;;;;;;14.86;60.35;102591.66;5047112;28;20029;-51
2023/04/19 06:43:41;;;;;;;2.97;2.67;;;;;;;14.86;60.49;102595.22;5065712;28;20058;-51
2023/04/19 06:46:07;;;;;;;2.67;2.47;;;;;;;14.86;60.20;102581.81;5064832;28;20047;-51
2023/04/19 06:48:34;;;;;;;3.10;2.80;;;;;;;14.86;60.20;102589.00;5065226;28;20075;-50
2023/04/19 06:50:59;;;;;;;3.33;3.03;;;;;;;14.86;59.98;102581.81;5066400;28;20075;-51
2023/04/19 06:53:26;;;;;;;3.33;3.03;;;;;;;14.86;60.14;102584.47;5073020;28;20052;-49
2023/04/19 06:55:59;;;;;;;2.80;2.60;;;;;;;14.88;60.38;102580.88;5072503;28;20034;-51
2023/04/19 06:58:25;;;;;;;2.60;2.40;;;;;;;14.86;60.15;102586.31;5071745;28;20024;-52
2023/04/19 07:00:51;;;;;;;4.20;2.92;;;;;;;14.85;59.93;102593.50;5064936;28;20044;-51
2023/04/19 07:03:16;;;;;;;2.67;2.47;;;;;;;14.86;60.05;102581.81;5065689;28;20032;-51
2023/04/19 07:05:41;;;;;;;2.58;2.38;;;;;;;14.85;59.96;102585.44;5075676;28;20025;-51
2023/04/19 07:08:07;;;;;;;3.22;2.92;;;;;;;14.86;60.06;102587.16;5072708;28;20033;-51
2023/04/19 07:10:32;;;;;;;3.15;2.85;;;;;;;14.85;60.07;102590.81;5071038;28;20024;-51
2023/04/19 07:12:57;;;;;;;2.90;2.30;;;;;;;14.86;60.49;102586.31;5065580;28;20162;-51
2023/04/19 07:15:23;;;;;;;3.13;2.45;;;;;;;14.86;60.18;102586.31;5065485;28;20029;-51
2023/04/19 07:17:48;;;;;;;3.22;2.92;;;;;;;14.85;60.09;102582.78;5065730;28;20036;-50
2023/04/19 07:20:13;;;;;;;2.92;2.63;;;;;;;14.86;60.26;102581.81;5064532;28;20453;-51
2023/04/19 07:22:39;;;;;;;4.05;2.17;;;;;;;14.86;59.95;102589.84;5064925;28;20025;-51
2023/04/19 07:25:05;;;;;;;2.65;2.45;;;;;;;14.85;59.96;102577.41;5066080;28;20443;-51
2023/04/19 07:27:30;;;;;;;2.53;2.33;;;;;;;14.86;60.33;102584.47;5065542;28;20471;-49
2023/04/19 07:29:55;;;;;;;2.75;2.55;;;;;;;14.86;60.24;102587.16;5064980;28;20116;-50
2023/04/19 07:32:21;;;;;;;3.20;2.58;;;;;;;14.85;60.19;102577.41;5064670;28;20036;-51
2023/04/19 07:34:46;;;;;;;3.05;2.75;;;;;;;14.88;60.10;102587.09;5047555;28;20024;-51
2023/04/19 07:37:11;;;;;;;3.13;2.55;;;;;;;14.86;60.18;102587.16;5065995;28;20036;-51
2023/04/19 07:39:38;;;;;;;3.75;2.65;;;;;;;14.86;60.13;102581.81;5064786;28;20025;-51
2023/04/19 07:42:03;;;;;;;2.55;2.35;;;;;;;14.86;60.08;102589.84;5065601;28;20035;-51
2023/04/19 07:44:28;;;;;;;5.25;2.45;;;;;;;14.88;60.22;102586.22;5065100;28;20406;-50
2023/04/19 07:46:54;;;;;;;2.72;2.20;;;;;;;14.85;60.06;102582.78;5065150;28;20044;-51
2023/04/19 07:49:19;;;;;;;3.15;2.55;;;;;;;14.87;60.19;102590.75;5065674;28;20445;-51
2023/04/19 07:51:45;;;;;;;3.05;2.55;;;;;;;14.86;60.29;102579.13;5064659;28;20124;-51
2023/04/19 07:54:10;;;;;;;2.78;2.58;;;;;;;14.86;60.17;102571.06;5065317;28;20073;-51
2023/04/19 07:56:36;;;;;;;2.53;2.33;;;;;;;14.86;60.20;102579.13;5064372;28;20501;-50
2023/04/19 07:59:02;;;;;;;2.80;2.60;;;;;;;14.86;60.25;102579.13;5065624;28;20036;-51
2023/04/19 08:01:28;;;;;;;3.13;2.83;;;;;;;14.85;59.98;102569.38;5067854;28;20039;-50
2023/04/19 08:03:54;;;;;;;2.83;2.63;;;;;;;14.86;60.06;102571.06;5068693;28;20556;-51
2023/04/19 08:06:20;;;;;;;2.97;2.70;;;;;;;14.88;59.87;102575.50;5069194;28;20503;-50
2023/04/19 08:08:46;;;;;;;2.72;2.40;;;;;;;14.86;60.31;102571.06;5068303;28;20109;-49
2023/04/19 08:11:11;;;;;;;3.47;2.50;;;;;;;14.87;60.00;102569.28;5068809;28;20103;-51
2023/04/19 08:13:37;;;;;;;3.00;2.67;;;;;;;14.85;60.15;102577.41;5069503;28;20088;-49
2023/04/19 08:16:02;;;;;;;3.20;2.60;;;;;;;14.86;60.21;102579.13;5069026;28;20173;-51
2023/04/19 08:18:27;;;;;;;2.75;2.20;;;;;;;14.86;60.32;102576.44;5069102;28;20028;-51
2023/04/19 08:20:53;;;;;;;2.67;2.45;;;;;;;14.87;59.91;102561.25;5068167;28;20024;-50
2023/04/19 08:23:18;;;;;;;3.22;2.50;;;;;;;14.87;59.97;102569.28;5068896;28;20033;-51
2023/04/19 08:25:44;;;;;;;2.42;2.22;;;;;;;14.87;60.22;102563.91;5075526;28;20032;-53
2023/04/19 08:28:11;;;;;;;2.95;2.63;;;;;;;14.86;60.12;102563.03;5068407;28;20040;-53
2023/04/19 08:30:36;;;;;;;3.47;2.95;;;;;;;14.88;59.91;102570.13;5068817;28;20060;-52
2023/04/19 08:33:02;;;;;;;3.40;2.50;;;;;;;14.87;60.21;102569.28;5068514;28;20117;-51
2023/04/19 08:35:27;;;;;;;4.22;2.60;;;;;;;14.88;59.97;102567.47;5068367;28;20078;-50
2023/04/19 08:37:52;;;;;;;2.78;2.58;;;;;;;14.88;60.04;102570.13;5067414;28;20043;-50
2023/04/19 08:40:18;;;;;;;2.97;2.67;;;;;;;14.89;60.32;102577.22;5067957;28;20032;-53
2023/04/19 08:42:43;;;;;;;4.70;2.80;;;;;;;14.88;60.20;102572.81;5068335;28;20110;-53
2023/04/19 08:45:12;;;;;;;2.58;2.25;;;;;;;14.88;59.99;102567.47;5049614;28;20122;-53
2023/04/19 08:47:39;;;;;;;3.00;2.70;;;;;;;14.88;59.92;102559.41;5068188;28;20032;-54
2023/04/19 08:50:07;;;;;;;2.90;2.65;;;;;;;14.86;60.07;102563.03;5067770;28;20482;-53
2023/04/19 08:52:34;;;;;;;5.53;2.63;;;;;;;14.88;60.13;102554.06;5072693;28;20043;-52
2023/04/19 08:55:04;;;;;;;3.05;2.40;;;;;;;14.86;60.21;102557.66;5068253;28;20082;-52
2023/04/19 08:57:31;;;;;;;3.03;2.65;;;;;;;14.89;60.20;102561.13;5067301;28;20082;-53
2023/04/19 08:59:56;;;;;;;3.42;2.60;;;;;;;14.89;60.00;102563.81;5068149;28;20043;-53
2023/04/19 09:02:23;;;;;;;3.38;2.63;;;;;;;14.88;60.23;102562.94;5068393;28;20024;-53
2023/04/19 09:04:48;;;;;;;3.92;2.88;;;;;;;14.88;59.95;102560.28;5067420;28;20020;-53
2023/04/19 09:07:24;;;;;;;2.88;2.60;;;;;;;14.90;60.29;102560.19;5068267;28;20082;-51
2023/04/19 09:10:07;;;;;;;2.58;2.35;;;;;;;14.90;60.31;102554.81;5067014;28;20025;-50
2023/04/19 09:12:37;;;;;;;2.28;2.03;;;;;;;14.89;59.79;102561.13;5068265;28;20502;-49
2023/04/19 09:15:04;;;;;;;2.67;2.47;;;;;;;14.88;60.07;102562.94;5067445;28;20062;-51
2023/04/19 09:17:30;;;;;;;2.80;2.55;;;;;;;14.89;59.84;102555.75;5067723;28;20041;-51
2023/04/19 09:19:56;;;;;;;2.63;2.42;;;;;;;14.89;59.99;102556.66;5072011;28;20040;-51
2023/04/19 09:22:22;;;;;;;3.67;2.53;;;;;;;14.89;59.91;102555.75;5068818;28;20041;-51
2023/04/19 09:24:47;;;;;;;2.60;2.30;;;;;;;14.89;59.83;102559.34;5073853;28;20033;-51
2023/04/19 09:27:23;;;;;;;2.40;2.17;;;;;;;14.89;59.70;102561.13;5067722;28;20041;-51
2023/04/19 09:29:54;;;;;;;2.70;2.47;;;;;;;14.90;59.96;102562.88;5066460;28;20390;-51
2023/04/19 09:32:20;;;;;;;3.10;2.50;;;;;;;14.89;59.95;102567.38;5067672;28;20398;-51
2023/04/19 09:34:59;;;;;;;2.85;2.60;;;;;;;14.91;59.96;102567.28;5048824;28;20108;-51
2023/04/19 09:37:25;;;;;;;2.35;2.15;;;;;;;14.89;59.74;102556.66;5067205;28;20028;-50
2023/04/19 09:39:52;;;;;;;3.20;2.53;;;;;;;14.91;59.62;102556.53;5066171;28;20052;-51
2023/04/19 09:42:19;;;;;;;3.22;2.60;;;;;;;14.90;59.79;102562.88;5066813;28;20032;-51
2023/04/19 09:44:59;;;;;;;2.65;2.45;;;;;;;14.91;59.92;102560.13;5073863;28;20024;-51
2023/04/19 09:47:28;;;;;;;2.97;2.53;;;;;;;14.91;59.80;102557.44;5068929;28;20035;-51
2023/04/19 09:50:23;;;;;;;2.92;2.38;;;;;;;14.95;60.07;102555.44;5066909;28;20106;-51
2023/04/19 09:52:49;;;;;;;2.97;2.67;;;;;;;14.91;59.69;102554.75;5060579;28;20079;-51
2023/04/19 09:55:15;;;;;;;2.55;2.35;;;;;;;14.91;60.07;102554.75;5065428;28;20025;-48
2023/04/19 09:57:41;;;;;;;4.85;2.53;;;;;;;14.92;59.64;102555.59;5074343;28;20428;-49
2023/04/19 10:00:08;;;;;;;4.32;2.80;;;;;;;14.91;59.80;102546.72;5048224;28;20037;-51
2023/04/19 10:02:34;;;;;;;4.43;2.80;;;;;;;14.91;59.68;102557.44;5061710;28;20037;-51
2023/04/19 10:04:59;;;;;;;6.00;2.75;;;;;;;14.91;59.51;102543.13;5066454;28;20471;-51
2023/04/19 10:07:26;;;;;;;4.85;3.60;;;;;;;14.92;59.59;102555.59;5066984;28;20032;-50
2023/04/19 10:09:54;;;;;;;4.35;2.97;;;;;;;14.90;59.89;102550.31;5066273;28;20585;-50
2023/04/19 10:12:23;;;;;;;4.25;3.15;;;;;;;14.92;59.52;102545.75;5066727;28;20032;-48
2023/04/19 10:14:49;;;;;;;5.65;3.10;;;;;;;14.92;59.83;102550.25;5067158;28;20024;-51
2023/04/19 10:17:15;;;;;;;9.55;2.95;;;;;;;14.92;59.82;102543.06;5066317;28;20505;-51
2023/04/19 10:19:43;;;;;;;4.85;3.15;;;;;;;14.92;59.79;102553.78;5068451;28;20028;-50
2023/04/19 10:22:09;;;;;;;5.22;3.10;;;;;;;14.93;59.83;102546.63;5064696;28;20040;-51
2023/04/19 10:24:35;;;;;;;5.75;3.42;;;;;;;14.92;59.35;102545.75;5066365;28;20038;-51
2023/04/19 10:27:10;;;;;;;9.40;3.20;;;;;;;14.93;59.93;102546.63;5047542;28;20118;-51
2023/04/19 10:30:02;;;;;;;6.25;3.92;;;;;;;14.95;59.71;102544.72;5066445;28;20546;-49
2023/04/19 10:32:35;;;;;;;8.50;4.13;;;;;;;14.93;59.66;102546.63;5066233;28;20032;-49
2023/04/19 10:35:03;;;;;;;5.78;3.55;;;;;;;14.94;59.66;102545.66;5065420;28;20037;-51
2023/04/19 10:37:30;;;;;;;7.15;4.18;;;;;;;14.93;59.67;102536.75;5047933;28;20033;-51
2023/04/19 10:39:56;;;;;;;5.82;3.53;;;;;;;14.93;59.69;102542.13;5062951;28;20033;-50
2023/04/19 10:42:21;;;;;;;7.50;4.05;;;;;;;14.94;59.27;102537.59;5065655;28;20040;-50
2023/04/19 10:45:24;;;;;;;6.13;4.38;;;;;;;14.97;59.29;102526.72;5073931;28;20036;-51
2023/04/19 10:47:50;;;;;;;4.72;3.30;;;;;;;14.95;59.26;102534.00;5074553;28;20036;-51
2023/04/19 10:50:17;;;;;;;8.48;4.28;;;;;;;14.95;59.59;102534.00;5066743;28;20494;-51
2023/04/19 10:52:42;;;;;;;9.07;4.28;;;;;;;14.94;59.44;102519.69;5065018;28;20120;-51
2023/04/19 10:55:08;;;;;;;7.30;4.20;;;;;;;14.94;59.48;102519.69;5066125;28;20107;-50
2023/04/19 10:58:05;;;;;;;8.55;3.97;;;;;;;14.96;59.69;102531.19;5048336;28;20063;-51
2023/04/19 11:00:31;;;;;;;8.38;4.32;;;;;;;14.95;59.20;102517.91;5064496;28;20039;-51
2023/04/19 11:02:59;;;;;;;7.28;4.25;;;;;;;14.95;59.12;102525.94;5065188;28;20031;-51
2023/04/19 11:05:24;;;;;;;6.82;4.10;;;;;;;14.95;59.40;102517.91;5065103;28;20036;-51
2023/04/19 11:07:50;;;;;;;9.05;4.22;;;;;;;14.96;59.44;102517.78;5066056;28;20389;-51
2023/04/19 11:10:28;;;;;;;5.93;3.90;;;;;;;14.97;59.44;102507.94;5065160;28;20036;-51
2023/04/19 11:12:53;;;;;;;6.28;4.00;;;;;;;14.96;59.04;102515.09;5065971;28;20028;-51
2023/04/19 11:15:22;;;;;;;6.35;3.58;;;;;;;14.96;58.82;102519.63;5064925;28;20508;-51
2023/04/19 11:17:51;;;;;;;6.57;3.90;;;;;;;14.97;59.38;102516.00;5065439;28;20077;-50
2023/04/19 11:20:17;;;;;;;6.85;3.72;;;;;;;14.97;59.26;102510.63;5066185;28;20123;-50